sensor_id;sensor_type;location;lat;lon;timestamp;P1;durP1;ratioP1;P2;durP2;ratioP2
12437;SDS011;6283;51.330;12.374;2022-09-16T00:00:28;3.47;;;1.20;;
12437;SDS011;6283;51.330;12.374;2022-09-16T00:02:54;1.20;;;1.10;;
12437;SDS011;6283;51.330;12.374;2022-09-16T00:05:20;2.17;;;1.07;;
12437;SDS011;6283;51.330;12.374;2022-09-16T00:07:45;1.40;;;0.90;;
12437;SDS011;6283;51.330;12.374;2022-09-16T00:10:11;0.70;;;0.60;;
12437;SDS011;6283;51.330;12.374;2022-09-16T00:12:37;1.20;;;1.10;;
12437;SDS011;6283;51.330;12.374;2022-09-16T00:15:03;3.63;;;1.20;;
12437;SDS011;6283;51.330;12.374;2022-09-16T00:17:29;3.90;;;1.17;;
12437;SDS011;6283;51.330;12.374;2022-09-16T00:19:55;3.57;;;1.00;;
12437;SDS011;6283;51.330;12.374;2022-09-16T00:22:22;3.33;;;1.20;;
12437;SDS011;6283;51.330;12.374;2022-09-16T00:24:48;2.70;;;1.10;;
12437;SDS011;6283;51.330;12.374;2022-09-16T00:27:14;2.70;;;0.90;;
12437;SDS011;6283;51.330;12.374;2022-09-16T00:29:39;3.93;;;1.30;;
12437;SDS011;6283;51.330;12.374;2022-09-16T00:32:05;4.23;;;1.13;;
12437;SDS011;6283;51.330;12.374;2022-09-16T00:34:31;0.80;;;0.80;;
12437;SDS011;6283;51.330;12.374;2022-09-16T00:36:56;3.13;;;1.03;;
12437;SDS011;6283;51.330;12.374;2022-09-16T00:39:22;2.23;;;1.00;;
12437;SDS011;6283;51.330;12.374;2022-09-16T00:41:48;3.60;;;1.20;;
12437;SDS011;6283;51.330;12.374;2022-09-16T00:47:19;4.43;;;1.07;;
12437;SDS011;6283;51.330;12.374;2022-09-16T00:49:53;2.67;;;1.10;;
12437;SDS011;6283;51.330;12.374;2022-09-16T00:52:23;4.40;;;0.80;;
12437;SDS011;6283;51.330;12.374;2022-09-16T00:54:50;1.53;;;0.90;;
12437;SDS011;6283;51.330;12.374;2022-09-16T00:57:16;2.37;;;1.30;;
12437;SDS011;6283;51.330;12.374;2022-09-16T00:59:45;2.43;;;0.90;;
12437;SDS011;6283;51.330;12.374;2022-09-16T01:02:16;3.60;;;1.03;;
12437;SDS011;6283;51.330;12.374;2022-09-16T01:07:22;1.93;;;0.90;;
12437;SDS011;6283;51.330;12.374;2022-09-16T01:09:53;2.03;;;1.10;;
12437;SDS011;6283;51.330;12.374;2022-09-16T01:12:19;2.50;;;1.00;;
12437;SDS011;6283;51.330;12.374;2022-09-16T01:14:45;4.07;;;1.10;;
12437;SDS011;6283;51.330;12.374;2022-09-16T01:31:13;2.87;;;1.20;;
12437;SDS011;6283;51.330;12.374;2022-09-16T01:34:12;2.43;;;1.47;;
12437;SDS011;6283;51.330;12.374;2022-09-16T01:36:50;1.33;;;1.20;;
12437;SDS011;6283;51.330;12.374;2022-09-16T01:39:42;3.43;;;1.47;;
12437;SDS011;6283;51.330;12.374;2022-09-16T01:42:26;4.57;;;1.23;;
12437;SDS011;6283;51.330;12.374;2022-09-16T01:50:43;3.63;;;1.33;;
12437;SDS011;6283;51.330;12.374;2022-09-16T01:53:31;3.50;;;1.33;;
12437;SDS011;6283;51.330;12.374;2022-09-16T01:56:21;3.47;;;1.53;;
12437;SDS011;6283;51.330;12.374;2022-09-16T02:01:21;2.73;;;1.30;;
12437;SDS011;6283;51.330;12.374;2022-09-16T02:03:52;2.20;;;1.33;;
12437;SDS011;6283;51.330;12.374;2022-09-16T02:06:22;2.87;;;1.37;;
12437;SDS011;6283;51.330;12.374;2022-09-16T02:08:55;2.53;;;1.20;;
12437;SDS011;6283;51.330;12.374;2022-09-16T02:11:24;2.90;;;1.33;;
12437;SDS011;6283;51.330;12.374;2022-09-16T02:16:44;3.10;;;1.40;;
12437;SDS011;6283;51.330;12.374;2022-09-16T02:19:19;2.37;;;1.07;;
12437;SDS011;6283;51.330;12.374;2022-09-16T02:21:48;3.27;;;1.40;;
12437;SDS011;6283;51.330;12.374;2022-09-16T02:24:17;1.83;;;1.20;;
12437;SDS011;6283;51.330;12.374;2022-09-16T02:26:49;2.30;;;1.37;;
12437;SDS011;6283;51.330;12.374;2022-09-16T02:29:20;1.50;;;1.10;;
12437;SDS011;6283;51.330;12.374;2022-09-16T02:31:50;1.40;;;1.30;;
12437;SDS011;6283;51.330;12.374;2022-09-16T02:34:31;1.37;;;1.10;;
12437;SDS011;6283;51.330;12.374;2022-09-16T02:37:03;5.00;;;1.13;;
12437;SDS011;6283;51.330;12.374;2022-09-16T02:39:34;1.53;;;1.10;;
12437;SDS011;6283;51.330;12.374;2022-09-16T02:42:03;1.27;;;0.90;;
12437;SDS011;6283;51.330;12.374;2022-09-16T02:44:30;2.23;;;1.03;;
12437;SDS011;6283;51.330;12.374;2022-09-16T02:47:08;1.83;;;1.20;;
12437;SDS011;6283;51.330;12.374;2022-09-16T02:52:44;4.43;;;1.00;;
12437;SDS011;6283;51.330;12.374;2022-09-16T02:58:21;3.20;;;1.07;;
12437;SDS011;6283;51.330;12.374;2022-09-16T03:00:48;1.70;;;1.27;;
12437;SDS011;6283;51.330;12.374;2022-09-16T03:03:16;1.67;;;1.00;;
12437;SDS011;6283;51.330;12.374;2022-09-16T03:08:33;1.30;;;1.20;;
12437;SDS011;6283;51.330;12.374;2022-09-16T03:11:01;1.30;;;1.10;;
12437;SDS011;6283;51.330;12.374;2022-09-16T03:13:58;1.80;;;1.00;;
12437;SDS011;6283;51.330;12.374;2022-09-16T03:28:06;1.80;;;0.97;;
12437;SDS011;6283;51.330;12.374;2022-09-16T03:30:42;1.57;;;1.00;;
12437;SDS011;6283;51.330;12.374;2022-09-16T03:33:43;1.60;;;0.80;;
12437;SDS011;6283;51.330;12.374;2022-09-16T03:36:07;3.50;;;0.90;;
12437;SDS011;6283;51.330;12.374;2022-09-16T03:38:37;4.77;;;0.93;;
12437;SDS011;6283;51.330;12.374;2022-09-16T03:41:05;3.17;;;1.07;;
12437;SDS011;6283;51.330;12.374;2022-09-16T03:43:32;1.83;;;0.87;;
12437;SDS011;6283;51.330;12.374;2022-09-16T03:45:58;1.67;;;0.80;;
12437;SDS011;6283;51.330;12.374;2022-09-16T03:48:23;5.20;;;1.00;;
12437;SDS011;6283;51.330;12.374;2022-09-16T03:50:49;0.83;;;0.70;;
12437;SDS011;6283;51.330;12.374;2022-09-16T03:53:14;1.97;;;0.87;;
12437;SDS011;6283;51.330;12.374;2022-09-16T03:55:40;2.57;;;1.03;;
12437;SDS011;6283;51.330;12.374;2022-09-16T03:58:06;2.27;;;1.03;;
12437;SDS011;6283;51.330;12.374;2022-09-16T04:00:31;1.00;;;1.00;;
12437;SDS011;6283;51.330;12.374;2022-09-16T04:02:57;1.33;;;1.00;;
12437;SDS011;6283;51.330;12.374;2022-09-16T04:08:39;3.20;;;0.90;;
12437;SDS011;6283;51.330;12.374;2022-09-16T04:11:07;1.20;;;0.77;;
12437;SDS011;6283;51.330;12.374;2022-09-16T04:13:33;1.73;;;0.77;;
12437;SDS011;6283;51.330;12.374;2022-09-16T04:16:00;1.67;;;0.93;;
12437;SDS011;6283;51.330;12.374;2022-09-16T04:18:29;0.90;;;0.90;;
12437;SDS011;6283;51.330;12.374;2022-09-16T04:20:56;1.90;;;1.20;;
12437;SDS011;6283;51.330;12.374;2022-09-16T04:23:26;2.47;;;0.90;;
12437;SDS011;6283;51.330;12.374;2022-09-16T04:26:02;0.90;;;0.90;;
12437;SDS011;6283;51.330;12.374;2022-09-16T04:28:28;1.90;;;1.47;;
12437;SDS011;6283;51.330;12.374;2022-09-16T04:30:58;4.20;;;1.30;;
12437;SDS011;6283;51.330;12.374;2022-09-16T04:33:29;3.83;;;0.93;;
12437;SDS011;6283;51.330;12.374;2022-09-16T04:36:12;3.67;;;1.20;;
12437;SDS011;6283;51.330;12.374;2022-09-16T04:38:40;2.67;;;1.30;;
12437;SDS011;6283;51.330;12.374;2022-09-16T04:41:14;3.73;;;1.30;;
12437;SDS011;6283;51.330;12.374;2022-09-16T04:43:43;4.83;;;1.30;;
12437;SDS011;6283;51.330;12.374;2022-09-16T04:46:09;2.93;;;1.50;;
12437;SDS011;6283;51.330;12.374;2022-09-16T04:48:35;4.20;;;2.00;;
12437;SDS011;6283;51.330;12.374;2022-09-16T04:51:03;2.27;;;1.47;;
12437;SDS011;6283;51.330;12.374;2022-09-16T04:53:32;3.83;;;1.60;;
12437;SDS011;6283;51.330;12.374;2022-09-16T04:56:02;2.10;;;1.57;;
12437;SDS011;6283;51.330;12.374;2022-09-16T04:58:29;5.57;;;1.80;;
12437;SDS011;6283;51.330;12.374;2022-09-16T05:00:54;4.23;;;2.20;;
12437;SDS011;6283;51.330;12.374;2022-09-16T05:03:20;3.63;;;1.83;;
12437;SDS011;6283;51.330;12.374;2022-09-16T05:05:45;5.80;;;2.20;;
12437;SDS011;6283;51.330;12.374;2022-09-16T05:08:11;1.93;;;1.70;;
12437;SDS011;6283;51.330;12.374;2022-09-16T05:10:37;3.00;;;1.90;;
12437;SDS011;6283;51.330;12.374;2022-09-16T05:13:02;2.97;;;1.80;;
12437;SDS011;6283;51.330;12.374;2022-09-16T05:15:28;2.67;;;1.70;;
12437;SDS011;6283;51.330;12.374;2022-09-16T05:17:53;4.13;;;2.03;;
12437;SDS011;6283;51.330;12.374;2022-09-16T05:20:19;3.57;;;2.10;;
12437;SDS011;6283;51.330;12.374;2022-09-16T05:22:47;5.47;;;1.97;;
12437;SDS011;6283;51.330;12.374;2022-09-16T05:25:15;3.17;;;1.80;;
12437;SDS011;6283;51.330;12.374;2022-09-16T05:27:40;2.87;;;1.80;;
12437;SDS011;6283;51.330;12.374;2022-09-16T05:30:06;2.83;;;1.67;;
12437;SDS011;6283;51.330;12.374;2022-09-16T05:32:33;2.77;;;1.90;;
12437;SDS011;6283;51.330;12.374;2022-09-16T05:34:58;5.83;;;2.10;;
12437;SDS011;6283;51.330;12.374;2022-09-16T05:37:24;2.67;;;1.63;;
12437;SDS011;6283;51.330;12.374;2022-09-16T05:39:50;4.40;;;1.97;;
12437;SDS011;6283;51.330;12.374;2022-09-16T05:42:15;5.67;;;2.30;;
12437;SDS011;6283;51.330;12.374;2022-09-16T05:44:41;3.27;;;1.80;;
12437;SDS011;6283;51.330;12.374;2022-09-16T05:47:06;2.67;;;1.53;;
12437;SDS011;6283;51.330;12.374;2022-09-16T05:49:32;3.13;;;1.83;;
12437;SDS011;6283;51.330;12.374;2022-09-16T05:51:57;3.47;;;1.50;;
12437;SDS011;6283;51.330;12.374;2022-09-16T05:54:23;1.80;;;1.30;;
12437;SDS011;6283;51.330;12.374;2022-09-16T05:56:49;3.40;;;1.50;;
12437;SDS011;6283;51.330;12.374;2022-09-16T05:59:15;1.33;;;1.23;;
12437;SDS011;6283;51.330;12.374;2022-09-16T06:01:42;1.67;;;1.40;;
12437;SDS011;6283;51.330;12.374;2022-09-16T06:04:09;1.67;;;1.10;;
12437;SDS011;6283;51.330;12.374;2022-09-16T06:06:43;1.27;;;1.13;;
12437;SDS011;6283;51.330;12.374;2022-09-16T06:09:13;2.93;;;1.30;;
12437;SDS011;6283;51.330;12.374;2022-09-16T06:11:45;4.77;;;1.40;;
12437;SDS011;6283;51.330;12.374;2022-09-16T06:14:13;4.50;;;1.70;;
12437;SDS011;6283;51.330;12.374;2022-09-16T06:16:40;5.63;;;1.20;;
12437;SDS011;6283;51.330;12.374;2022-09-16T06:19:08;1.20;;;1.10;;
12437;SDS011;6283;51.330;12.374;2022-09-16T06:21:37;1.67;;;0.97;;
12437;SDS011;6283;51.330;12.374;2022-09-16T06:24:03;1.53;;;1.10;;
12437;SDS011;6283;51.330;12.374;2022-09-16T06:26:33;1.53;;;1.00;;
12437;SDS011;6283;51.330;12.374;2022-09-16T06:28:59;2.90;;;1.20;;
12437;SDS011;6283;51.330;12.374;2022-09-16T06:31:25;3.90;;;1.37;;
12437;SDS011;6283;51.330;12.374;2022-09-16T06:33:52;2.57;;;1.00;;
12437;SDS011;6283;51.330;12.374;2022-09-16T06:36:19;2.00;;;1.27;;
12437;SDS011;6283;51.330;12.374;2022-09-16T06:38:47;3.70;;;0.93;;
12437;SDS011;6283;51.330;12.374;2022-09-16T06:41:14;3.13;;;1.20;;
12437;SDS011;6283;51.330;12.374;2022-09-16T06:43:41;4.13;;;1.33;;
12437;SDS011;6283;51.330;12.374;2022-09-16T06:46:09;1.87;;;1.00;;
12437;SDS011;6283;51.330;12.374;2022-09-16T06:48:40;1.93;;;1.00;;
12437;SDS011;6283;51.330;12.374;2022-09-16T06:51:11;2.30;;;1.37;;
12437;SDS011;6283;51.330;12.374;2022-09-16T06:53:48;1.30;;;1.00;;
12437;SDS011;6283;51.330;12.374;2022-09-16T06:56:15;5.67;;;1.20;;
12437;SDS011;6283;51.330;12.374;2022-09-16T06:58:44;1.27;;;0.80;;
12437;SDS011;6283;51.330;12.374;2022-09-16T07:01:15;2.97;;;1.07;;
12437;SDS011;6283;51.330;12.374;2022-09-16T07:03:46;2.37;;;0.80;;
12437;SDS011;6283;51.330;12.374;2022-09-16T07:06:13;2.27;;;0.90;;
12437;SDS011;6283;51.330;12.374;2022-09-16T07:08:40;0.87;;;0.87;;
12437;SDS011;6283;51.330;12.374;2022-09-16T07:13:40;2.37;;;1.20;;
12437;SDS011;6283;51.330;12.374;2022-09-16T07:16:07;2.07;;;1.00;;
12437;SDS011;6283;51.330;12.374;2022-09-16T07:18:35;1.93;;;0.97;;
12437;SDS011;6283;51.330;12.374;2022-09-16T07:21:06;1.63;;;1.23;;
12437;SDS011;6283;51.330;12.374;2022-09-16T07:23:36;1.27;;;0.93;;
12437;SDS011;6283;51.330;12.374;2022-09-16T07:28:39;0.97;;;0.90;;
12437;SDS011;6283;51.330;12.374;2022-09-16T07:31:07;2.40;;;1.10;;
12437;SDS011;6283;51.330;12.374;2022-09-16T07:33:36;2.23;;;1.20;;
12437;SDS011;6283;51.330;12.374;2022-09-16T07:36:04;2.33;;;0.80;;
12437;SDS011;6283;51.330;12.374;2022-09-16T07:38:31;2.73;;;0.83;;
12437;SDS011;6283;51.330;12.374;2022-09-16T07:41:07;2.60;;;1.53;;
12437;SDS011;6283;51.330;12.374;2022-09-16T07:43:36;3.17;;;1.10;;
12437;SDS011;6283;51.330;12.374;2022-09-16T07:46:04;4.73;;;1.27;;
12437;SDS011;6283;51.330;12.374;2022-09-16T07:48:31;3.60;;;1.20;;
12437;SDS011;6283;51.330;12.374;2022-09-16T07:50:58;1.83;;;1.00;;
12437;SDS011;6283;51.330;12.374;2022-09-16T07:53:29;1.43;;;1.20;;
12437;SDS011;6283;51.330;12.374;2022-09-16T07:55:55;2.07;;;1.00;;
12437;SDS011;6283;51.330;12.374;2022-09-16T07:58:25;5.33;;;1.90;;
12437;SDS011;6283;51.330;12.374;2022-09-16T08:00:50;2.03;;;1.10;;
12437;SDS011;6283;51.330;12.374;2022-09-16T08:03:16;1.10;;;0.90;;
12437;SDS011;6283;51.330;12.374;2022-09-16T08:05:42;1.20;;;1.10;;
12437;SDS011;6283;51.330;12.374;2022-09-16T08:08:08;3.53;;;1.17;;
12437;SDS011;6283;51.330;12.374;2022-09-16T08:10:33;1.63;;;1.00;;
12437;SDS011;6283;51.330;12.374;2022-09-16T08:13:01;1.47;;;1.10;;
12437;SDS011;6283;51.330;12.374;2022-09-16T08:15:30;3.47;;;1.07;;
12437;SDS011;6283;51.330;12.374;2022-09-16T08:17:56;2.67;;;1.30;;
12437;SDS011;6283;51.330;12.374;2022-09-16T08:20:22;1.77;;;0.90;;
12437;SDS011;6283;51.330;12.374;2022-09-16T08:22:49;4.13;;;1.43;;
12437;SDS011;6283;51.330;12.374;2022-09-16T08:25:15;1.90;;;1.30;;
12437;SDS011;6283;51.330;12.374;2022-09-16T08:27:40;2.00;;;1.30;;
12437;SDS011;6283;51.330;12.374;2022-09-16T08:30:06;1.23;;;1.13;;
12437;SDS011;6283;51.330;12.374;2022-09-16T08:32:32;1.83;;;1.10;;
12437;SDS011;6283;51.330;12.374;2022-09-16T08:34:58;1.73;;;1.17;;
12437;SDS011;6283;51.330;12.374;2022-09-16T08:37:23;2.53;;;1.30;;
12437;SDS011;6283;51.330;12.374;2022-09-16T08:39:49;2.55;;;1.23;;
12437;SDS011;6283;51.330;12.374;2022-09-16T08:45:27;2.50;;;1.50;;
12437;SDS011;6283;51.330;12.374;2022-09-16T08:50:56;3.40;;;1.00;;
12437;SDS011;6283;51.330;12.374;2022-09-16T08:53:31;1.67;;;1.17;;
12437;SDS011;6283;51.330;12.374;2022-09-16T08:56:06;2.08;;;0.90;;
12437;SDS011;6283;51.330;12.374;2022-09-16T08:58:42;4.07;;;1.40;;
12437;SDS011;6283;51.330;12.374;2022-09-16T09:01:31;2.78;;;1.20;;
12437;SDS011;6283;51.330;12.374;2022-09-16T09:03:59;4.17;;;1.30;;
12437;SDS011;6283;51.330;12.374;2022-09-16T09:11:58;1.45;;;1.08;;
12437;SDS011;6283;51.330;12.374;2022-09-16T09:20:32;5.53;;;1.10;;
12437;SDS011;6283;51.330;12.374;2022-09-16T09:26:04;4.40;;;1.50;;
12437;SDS011;6283;51.330;12.374;2022-09-16T09:39:59;4.03;;;1.40;;
12437;SDS011;6283;51.330;12.374;2022-09-16T09:42:38;1.70;;;0.90;;
12437;SDS011;6283;51.330;12.374;2022-09-16T09:45:22;3.37;;;1.00;;
12437;SDS011;6283;51.330;12.374;2022-09-16T09:47:56;1.97;;;1.20;;
12437;SDS011;6283;51.330;12.374;2022-09-16T09:50:45;2.63;;;0.93;;
12437;SDS011;6283;51.330;12.374;2022-09-16T09:53:17;1.07;;;1.00;;
12437;SDS011;6283;51.330;12.374;2022-09-16T09:55:50;1.00;;;1.00;;
12437;SDS011;6283;51.330;12.374;2022-09-16T09:58:38;2.20;;;1.10;;
12437;SDS011;6283;51.330;12.374;2022-09-16T10:01:08;0.70;;;0.70;;
12437;SDS011;6283;51.330;12.374;2022-09-16T10:03:35;1.27;;;1.13;;
12437;SDS011;6283;51.330;12.374;2022-09-16T10:06:02;2.00;;;1.53;;
12437;SDS011;6283;51.330;12.374;2022-09-16T10:08:30;1.17;;;0.80;;
12437;SDS011;6283;51.330;12.374;2022-09-16T10:11:02;2.13;;;1.05;;
12437;SDS011;6283;51.330;12.374;2022-09-16T10:13:49;2.83;;;0.80;;
12437;SDS011;6283;51.330;12.374;2022-09-16T10:16:20;1.33;;;0.77;;
12437;SDS011;6283;51.330;12.374;2022-09-16T10:18:54;2.57;;;0.93;;
12437;SDS011;6283;51.330;12.374;2022-09-16T10:21:23;1.30;;;1.00;;
12437;SDS011;6283;51.330;12.374;2022-09-16T10:23:53;1.63;;;0.80;;
12437;SDS011;6283;51.330;12.374;2022-09-16T10:29:01;1.15;;;1.00;;
12437;SDS011;6283;51.330;12.374;2022-09-16T10:31:37;1.20;;;0.73;;
12437;SDS011;6283;51.330;12.374;2022-09-16T10:34:04;0.70;;;0.70;;
12437;SDS011;6283;51.330;12.374;2022-09-16T10:37:00;0.85;;;0.70;;
12437;SDS011;6283;51.330;12.374;2022-09-16T10:39:28;0.70;;;0.70;;
12437;SDS011;6283;51.330;12.374;2022-09-16T10:41:55;1.15;;;0.82;;
12437;SDS011;6283;51.330;12.374;2022-09-16T10:47:01;1.13;;;0.70;;
12437;SDS011;6283;51.330;12.374;2022-09-16T10:49:37;3.28;;;0.80;;
12437;SDS011;6283;51.330;12.374;2022-09-16T10:54:51;1.33;;;0.63;;
12437;SDS011;6283;51.330;12.374;2022-09-16T10:57:22;4.55;;;1.27;;
12437;SDS011;6283;51.330;12.374;2022-09-16T10:59:59;5.47;;;1.10;;
12437;SDS011;6283;51.330;12.374;2022-09-16T11:05:17;0.75;;;0.75;;
12437;SDS011;6283;51.330;12.374;2022-09-16T11:10:58;0.50;;;0.50;;
12437;SDS011;6283;51.330;12.374;2022-09-16T11:13:35;2.55;;;0.75;;
12437;SDS011;6283;51.330;12.374;2022-09-16T11:24:42;1.15;;;0.95;;
12437;SDS011;6283;51.330;12.374;2022-09-16T11:30:20;2.10;;;0.90;;
12437;SDS011;6283;51.330;12.374;2022-09-16T11:40:48;1.95;;;0.63;;
12437;SDS011;6283;51.330;12.374;2022-09-16T11:58:02;0.85;;;0.85;;
12437;SDS011;6283;51.330;12.374;2022-09-16T12:00:42;1.00;;;0.60;;
12437;SDS011;6283;51.330;12.374;2022-09-16T12:03:11;0.82;;;0.52;;
12437;SDS011;6283;51.330;12.374;2022-09-16T12:05:51;2.05;;;1.00;;
12437;SDS011;6283;51.330;12.374;2022-09-16T12:15:54;2.78;;;0.70;;
12437;SDS011;6283;51.330;12.374;2022-09-16T12:18:44;1.55;;;0.70;;
12437;SDS011;6283;51.330;12.374;2022-09-16T12:24:08;0.75;;;0.40;;
12437;SDS011;6283;51.330;12.374;2022-09-16T12:29:32;0.55;;;0.30;;
12437;SDS011;6283;51.330;12.374;2022-09-16T12:32:14;0.60;;;0.60;;
12437;SDS011;6283;51.330;12.374;2022-09-16T12:46:32;0.95;;;0.60;;
12437;SDS011;6283;51.330;12.374;2022-09-16T12:52:28;0.60;;;0.60;;
12437;SDS011;6283;51.330;12.374;2022-09-16T13:05:45;0.47;;;0.47;;
12437;SDS011;6283;51.330;12.374;2022-09-16T13:08:27;0.55;;;0.50;;
12437;SDS011;6283;51.330;12.374;2022-09-16T13:10:56;1.65;;;0.50;;
12437;SDS011;6283;51.330;12.374;2022-09-16T13:13:29;0.60;;;0.60;;
12437;SDS011;6283;51.330;12.374;2022-09-16T13:15:56;0.93;;;0.52;;
12437;SDS011;6283;51.330;12.374;2022-09-16T13:18:25;1.17;;;0.52;;
12437;SDS011;6283;51.330;12.374;2022-09-16T13:21:11;1.35;;;0.90;;
12437;SDS011;6283;51.330;12.374;2022-09-16T13:23:48;1.42;;;0.60;;
12437;SDS011;6283;51.330;12.374;2022-09-16T13:26:38;1.00;;;0.60;;
12437;SDS011;6283;51.330;12.374;2022-09-16T13:29:22;1.98;;;0.70;;
12437;SDS011;6283;51.330;12.374;2022-09-16T13:31:55;2.47;;;1.05;;
12437;SDS011;6283;51.330;12.374;2022-09-16T13:34:22;0.82;;;0.60;;
12437;SDS011;6283;51.330;12.374;2022-09-16T13:36:48;1.80;;;0.60;;
12437;SDS011;6283;51.330;12.374;2022-09-16T13:39:26;1.50;;;1.10;;
12437;SDS011;6283;51.330;12.374;2022-09-16T13:41:53;2.35;;;0.80;;
12437;SDS011;6283;51.330;12.374;2022-09-16T13:44:29;1.08;;;0.88;;
12437;SDS011;6283;51.330;12.374;2022-09-16T13:49:35;1.52;;;0.90;;
12437;SDS011;6283;51.330;12.374;2022-09-16T13:52:19;0.75;;;0.60;;
12437;SDS011;6283;51.330;12.374;2022-09-16T13:54:51;2.20;;;0.70;;
12437;SDS011;6283;51.330;12.374;2022-09-16T14:10:49;0.75;;;0.75;;
12437;SDS011;6283;51.330;12.374;2022-09-16T14:13:30;3.03;;;0.95;;
12437;SDS011;6283;51.330;12.374;2022-09-16T14:16:01;0.95;;;0.50;;
12437;SDS011;6283;51.330;12.374;2022-09-16T14:18:30;2.70;;;0.80;;
12437;SDS011;6283;51.330;12.374;2022-09-16T14:21:02;2.83;;;0.95;;
12437;SDS011;6283;51.330;12.374;2022-09-16T14:23:30;0.77;;;0.65;;
12437;SDS011;6283;51.330;12.374;2022-09-16T14:25:57;2.03;;;0.90;;
12437;SDS011;6283;51.330;12.374;2022-09-16T14:28:35;2.80;;;0.85;;
12437;SDS011;6283;51.330;12.374;2022-09-16T14:31:05;3.08;;;0.90;;
12437;SDS011;6283;51.330;12.374;2022-09-16T14:33:34;1.38;;;0.80;;
12437;SDS011;6283;51.330;12.374;2022-09-16T14:36:09;2.13;;;0.80;;
12437;SDS011;6283;51.330;12.374;2022-09-16T14:39:16;0.57;;;0.55;;
12437;SDS011;6283;51.330;12.374;2022-09-16T14:41:52;1.45;;;0.80;;
12437;SDS011;6283;51.330;12.374;2022-09-16T14:44:28;1.48;;;0.70;;
12437;SDS011;6283;51.330;12.374;2022-09-16T14:47:01;3.00;;;0.77;;
12437;SDS011;6283;51.330;12.374;2022-09-16T14:49:30;1.00;;;0.80;;
12437;SDS011;6283;51.330;12.374;2022-09-16T14:51:56;1.67;;;0.63;;
12437;SDS011;6283;51.330;12.374;2022-09-16T14:54:26;0.57;;;0.55;;
12437;SDS011;6283;51.330;12.374;2022-09-16T14:56:59;1.45;;;0.93;;
12437;SDS011;6283;51.330;12.374;2022-09-16T14:59:28;3.33;;;0.90;;
12437;SDS011;6283;51.330;12.374;2022-09-16T15:02:04;0.95;;;0.60;;
12437;SDS011;6283;51.330;12.374;2022-09-16T15:04:42;2.05;;;1.08;;
12437;SDS011;6283;51.330;12.374;2022-09-16T15:07:11;1.23;;;0.70;;
12437;SDS011;6283;51.330;12.374;2022-09-16T15:12:17;0.70;;;0.70;;
12437;SDS011;6283;51.330;12.374;2022-09-16T15:14:47;1.13;;;0.65;;
12437;SDS011;6283;51.330;12.374;2022-09-16T15:17:15;1.92;;;0.98;;
12437;SDS011;6283;51.330;12.374;2022-09-16T15:19:45;1.48;;;0.60;;
12437;SDS011;6283;51.330;12.374;2022-09-16T15:22:15;2.15;;;0.80;;
12437;SDS011;6283;51.330;12.374;2022-09-16T15:24:40;1.10;;;0.93;;
12437;SDS011;6283;51.330;12.374;2022-09-16T15:27:07;1.42;;;0.75;;
12437;SDS011;6283;51.330;12.374;2022-09-16T15:29:34;1.38;;;0.82;;
12437;SDS011;6283;51.330;12.374;2022-09-16T15:32:15;2.95;;;0.88;;
12437;SDS011;6283;51.330;12.374;2022-09-16T15:34:43;1.23;;;0.65;;
12437;SDS011;6283;51.330;12.374;2022-09-16T15:37:26;1.92;;;0.90;;
12437;SDS011;6283;51.330;12.374;2022-09-16T15:40:06;1.08;;;0.65;;
12437;SDS011;6283;51.330;12.374;2022-09-16T15:42:33;2.28;;;0.80;;
12437;SDS011;6283;51.330;12.374;2022-09-16T15:45:00;3.65;;;0.95;;
12437;SDS011;6283;51.330;12.374;2022-09-16T15:47:28;1.45;;;0.93;;
12437;SDS011;6283;51.330;12.374;2022-09-16T15:52:33;1.73;;;1.10;;
12437;SDS011;6283;51.330;12.374;2022-09-16T15:55:29;0.90;;;0.88;;
12437;SDS011;6283;51.330;12.374;2022-09-16T15:58:09;1.83;;;0.80;;
12437;SDS011;6283;51.330;12.374;2022-09-16T16:03:27;1.75;;;0.70;;
12437;SDS011;6283;51.330;12.374;2022-09-16T16:05:57;0.88;;;0.77;;
12437;SDS011;6283;51.330;12.374;2022-09-16T16:08:36;1.52;;;0.63;;
12437;SDS011;6283;51.330;12.374;2022-09-16T16:11:21;1.33;;;0.60;;
12437;SDS011;6283;51.330;12.374;2022-09-16T16:13:47;1.95;;;1.00;;
12437;SDS011;6283;51.330;12.374;2022-09-16T16:16:16;1.13;;;0.70;;
12437;SDS011;6283;51.330;12.374;2022-09-16T16:18:43;2.25;;;1.05;;
12437;SDS011;6283;51.330;12.374;2022-09-16T16:21:11;1.83;;;0.82;;
12437;SDS011;6283;51.330;12.374;2022-09-16T16:23:38;5.05;;;1.05;;
12437;SDS011;6283;51.330;12.374;2022-09-16T16:26:04;1.20;;;0.80;;
12437;SDS011;6283;51.330;12.374;2022-09-16T16:28:31;2.28;;;1.08;;
12437;SDS011;6283;51.330;12.374;2022-09-16T16:33:40;1.98;;;0.90;;
12437;SDS011;6283;51.330;12.374;2022-09-16T16:36:07;1.10;;;0.90;;
12437;SDS011;6283;51.330;12.374;2022-09-16T16:38:32;2.83;;;0.90;;
12437;SDS011;6283;51.330;12.374;2022-09-16T16:40:58;2.00;;;1.00;;
12437;SDS011;6283;51.330;12.374;2022-09-16T16:43:24;1.90;;;0.88;;
12437;SDS011;6283;51.330;12.374;2022-09-16T16:45:53;2.85;;;0.80;;
12437;SDS011;6283;51.330;12.374;2022-09-16T16:48:20;1.13;;;0.70;;
12437;SDS011;6283;51.330;12.374;2022-09-16T16:50:56;2.05;;;0.70;;
12437;SDS011;6283;51.330;12.374;2022-09-16T16:53:21;1.25;;;0.65;;
12437;SDS011;6283;51.330;12.374;2022-09-16T16:55:47;2.83;;;0.80;;
12437;SDS011;6283;51.330;12.374;2022-09-16T16:58:13;3.92;;;0.70;;
12437;SDS011;6283;51.330;12.374;2022-09-16T17:00:38;1.30;;;0.93;;
12437;SDS011;6283;51.330;12.374;2022-09-16T17:03:04;1.40;;;1.05;;
12437;SDS011;6283;51.330;12.374;2022-09-16T17:05:29;1.77;;;0.85;;
12437;SDS011;6283;51.330;12.374;2022-09-16T17:07:55;1.75;;;0.82;;
12437;SDS011;6283;51.330;12.374;2022-09-16T17:10:20;1.48;;;0.73;;
12437;SDS011;6283;51.330;12.374;2022-09-16T17:12:57;2.03;;;0.60;;
12437;SDS011;6283;51.330;12.374;2022-09-16T17:15:23;2.72;;;0.88;;
12437;SDS011;6283;51.330;12.374;2022-09-16T17:17:49;1.98;;;0.68;;
12437;SDS011;6283;51.330;12.374;2022-09-16T17:20:15;1.58;;;0.73;;
12437;SDS011;6283;51.330;12.374;2022-09-16T17:22:41;2.10;;;0.80;;
12437;SDS011;6283;51.330;12.374;2022-09-16T17:25:06;1.88;;;0.85;;
12437;SDS011;6283;51.330;12.374;2022-09-16T17:27:32;1.42;;;0.70;;
12437;SDS011;6283;51.330;12.374;2022-09-16T17:29:58;1.75;;;0.65;;
12437;SDS011;6283;51.330;12.374;2022-09-16T17:32:26;1.88;;;0.90;;
12437;SDS011;6283;51.330;12.374;2022-09-16T17:34:51;2.03;;;0.80;;
12437;SDS011;6283;51.330;12.374;2022-09-16T17:37:17;3.05;;;1.08;;
12437;SDS011;6283;51.330;12.374;2022-09-16T17:39:43;2.85;;;0.90;;
12437;SDS011;6283;51.330;12.374;2022-09-16T17:42:09;2.90;;;1.10;;
12437;SDS011;6283;51.330;12.374;2022-09-16T17:44:35;2.88;;;0.73;;
12437;SDS011;6283;51.330;12.374;2022-09-16T17:47:00;3.45;;;1.00;;
12437;SDS011;6283;51.330;12.374;2022-09-16T17:49:27;1.83;;;0.85;;
12437;SDS011;6283;51.330;12.374;2022-09-16T17:51:53;1.27;;;0.65;;
12437;SDS011;6283;51.330;12.374;2022-09-16T17:54:19;1.77;;;0.70;;
12437;SDS011;6283;51.330;12.374;2022-09-16T17:56:45;2.47;;;0.85;;
12437;SDS011;6283;51.330;12.374;2022-09-16T17:59:11;3.83;;;0.80;;
12437;SDS011;6283;51.330;12.374;2022-09-16T18:01:39;1.75;;;0.80;;
12437;SDS011;6283;51.330;12.374;2022-09-16T18:04:05;1.38;;;0.70;;
12437;SDS011;6283;51.330;12.374;2022-09-16T18:06:32;2.15;;;0.88;;
12437;SDS011;6283;51.330;12.374;2022-09-16T18:09:02;2.47;;;0.80;;
12437;SDS011;6283;51.330;12.374;2022-09-16T18:11:28;2.85;;;0.85;;
12437;SDS011;6283;51.330;12.374;2022-09-16T18:13:55;3.30;;;0.57;;
12437;SDS011;6283;51.330;12.374;2022-09-16T18:16:22;1.23;;;0.93;;
12437;SDS011;6283;51.330;12.374;2022-09-16T18:18:49;0.87;;;0.73;;
12437;SDS011;6283;51.330;12.374;2022-09-16T18:21:17;1.73;;;1.05;;
12437;SDS011;6283;51.330;12.374;2022-09-16T18:23:44;2.30;;;0.80;;
12437;SDS011;6283;51.330;12.374;2022-09-16T18:26:11;1.07;;;0.80;;
12437;SDS011;6283;51.330;12.374;2022-09-16T18:28:41;2.17;;;0.87;;
12437;SDS011;6283;51.330;12.374;2022-09-16T18:31:09;1.63;;;0.70;;